createdAt,value
2023-03-26T00:02:00.802Z,2.40
2023-03-26T00:04:30.056Z,2.78
2023-03-26T00:06:57.520Z,3.65
2023-03-26T00:09:28.432Z,4.30
2023-03-26T00:12:02.438Z,5.47
2023-03-26T00:14:40.503Z,5.17
2023-03-26T00:17:10.889Z,3.33
2023-03-26T00:19:38.125Z,5.50
2023-03-26T00:22:16.708Z,2.95
2023-03-26T00:24:44.812Z,2.15
2023-03-26T00:27:14.136Z,5.97
2023-03-26T00:29:48.435Z,5.15
2023-03-26T00:32:15.703Z,2.00
2023-03-26T00:34:43.301Z,4.20
2023-03-26T00:37:13.147Z,4.53
2023-03-26T00:39:41.341Z,4.47
2023-03-26T00:42:09.899Z,4.90
2023-03-26T00:44:37.294Z,5.07
2023-03-26T00:49:48.227Z,7.15
2023-03-26T00:52:25.392Z,5.63
2023-03-26T00:54:54.365Z,3.40
2023-03-26T00:57:35.052Z,5.78
2023-03-26T01:00:07.645Z,4.68
2023-03-26T01:02:39.702Z,4.47
2023-03-26T01:05:40.449Z,3.13
2023-03-26T01:08:17.506Z,4.28
2023-03-26T01:10:51.180Z,2.53
2023-03-26T01:13:21.857Z,6.25
2023-03-26T01:15:51.742Z,4.38
2023-03-26T01:18:23.737Z,4.87
2023-03-26T01:20:53.547Z,3.67
2023-03-26T01:23:25.657Z,4.40
2023-03-26T01:26:06.923Z,2.92
2023-03-26T01:28:40.262Z,4.43
2023-03-26T01:31:18.601Z,2.50
2023-03-26T01:33:59.899Z,2.50
2023-03-26T01:36:34.339Z,3.00
2023-03-26T01:41:58.670Z,4.20
2023-03-26T01:44:34.119Z,4.97
2023-03-26T01:47:02.287Z,3.15
2023-03-26T01:49:30.088Z,2.72
2023-03-26T01:52:10.611Z,3.72
2023-03-26T01:54:41.112Z,5.18
2023-03-26T01:57:20.601Z,4.83
2023-03-26T02:00:18.944Z,6.40
2023-03-26T02:03:03.762Z,4.85
2023-03-26T02:05:37.944Z,3.05
2023-03-26T02:10:58.755Z,6.23
2023-03-26T02:13:32.502Z,6.35
2023-03-26T02:16:03.647Z,3.42
2023-03-26T02:18:33.278Z,3.97
2023-03-26T02:21:01.492Z,6.18
2023-03-26T02:23:32.655Z,6.17
2023-03-26T02:28:57.444Z,4.60
2023-03-26T02:31:42.463Z,4.30
2023-03-26T02:34:11.861Z,4.72
2023-03-26T02:36:39.965Z,5.87
2023-03-26T02:39:15.136Z,6.97
2023-03-26T02:41:47.461Z,7.18
2023-03-26T02:44:16.783Z,5.55
2023-03-26T02:46:48.088Z,5.70
2023-03-26T02:49:15.878Z,4.80
2023-03-26T02:51:52.715Z,3.80
2023-03-26T02:54:21.843Z,3.55
2023-03-26T02:56:50.948Z,7.00
2023-03-26T02:59:22.542Z,8.60
2023-03-26T03:01:54.467Z,6.87
2023-03-26T03:04:24.863Z,4.72
2023-03-26T03:06:54.351Z,3.03
2023-03-26T03:09:21.908Z,4.70
2023-03-26T03:11:48.882Z,6.88
2023-03-26T03:14:17.467Z,7.53
2023-03-26T03:16:54.233Z,7.38
2023-03-26T03:19:24.284Z,4.00
2023-03-26T03:22:01.002Z,6.93
2023-03-26T03:24:33.916Z,5.30
2023-03-26T03:27:04.649Z,7.10
2023-03-26T03:29:43.995Z,5.78
2023-03-26T03:32:13.665Z,6.03
2023-03-26T03:34:41.903Z,4.45
2023-03-26T03:37:09.142Z,7.05
2023-03-26T03:39:38.632Z,4.17
2023-03-26T03:42:10.395Z,4.18
2023-03-26T03:44:45.120Z,7.70
2023-03-26T03:47:32.567Z,7.50
2023-03-26T03:50:00.715Z,5.20
2023-03-26T03:52:33.672Z,7.37
2023-03-26T03:55:03.398Z,4.93
2023-03-26T03:57:32.853Z,5.60
2023-03-26T04:00:03.975Z,9.77
2023-03-26T04:02:36.818Z,5.65
2023-03-26T04:05:06.483Z,6.40
2023-03-26T04:07:34.415Z,5.22
2023-03-26T04:10:02.382Z,5.93
2023-03-26T04:12:40.884Z,9.50
2023-03-26T04:15:08.851Z,7.20
2023-03-26T04:17:39.251Z,4.90
2023-03-26T04:20:13.864Z,4.35
2023-03-26T04:22:48.857Z,5.50
2023-03-26T04:25:16.907Z,3.83
2023-03-26T04:27:47.431Z,5.32
2023-03-26T04:30:18.014Z,7.10
2023-03-26T04:32:49.593Z,10.02
2023-03-26T04:35:18.434Z,7.88
2023-03-26T04:37:48.426Z,10.35
2023-03-26T04:40:17.948Z,11.57
2023-03-26T04:42:48.359Z,5.10
2023-03-26T04:45:19.093Z,9.95
2023-03-26T04:47:50.473Z,8.10
2023-03-26T04:50:22.458Z,8.95
2023-03-26T04:52:51.596Z,5.47
2023-03-26T04:55:25.100Z,11.20
2023-03-26T04:58:01.448Z,10.45
2023-03-26T05:00:30.097Z,5.40
2023-03-26T05:03:09.212Z,7.03
2023-03-26T05:05:37.168Z,9.07
2023-03-26T05:08:04.438Z,10.57
2023-03-26T05:10:32.745Z,5.28
2023-03-26T05:13:01.827Z,5.68
2023-03-26T05:15:31.196Z,10.88
2023-03-26T05:18:03.896Z,9.10
2023-03-26T05:20:35.974Z,5.80
2023-03-26T05:23:07.840Z,7.55
2023-03-26T05:25:57.295Z,7.20
2023-03-26T05:28:27.548Z,5.55
2023-03-26T05:31:08.423Z,6.72
2023-03-26T05:33:39.874Z,8.73
2023-03-26T05:36:11.236Z,4.45
2023-03-26T05:38:43.034Z,9.40
2023-03-26T05:41:11.063Z,11.25
2023-03-26T05:43:39.766Z,10.18
2023-03-26T05:46:08.778Z,6.70
2023-03-26T05:48:40.014Z,6.10
2023-03-26T05:51:15.729Z,5.97
2023-03-26T05:53:54.005Z,7.28
2023-03-26T05:56:23.246Z,6.85
2023-03-26T05:58:53.135Z,7.57
2023-03-26T06:01:25.392Z,6.70
2023-03-26T06:04:18.330Z,6.95
2023-03-26T06:09:38.612Z,7.38
2023-03-26T06:12:10.881Z,5.60
2023-03-26T06:14:40.117Z,10.18
2023-03-26T06:17:14.274Z,6.60
2023-03-26T06:19:46.685Z,7.35
2023-03-26T06:22:16.894Z,5.35
2023-03-26T06:24:46.349Z,6.43
2023-03-26T06:27:13.385Z,8.75
2023-03-26T06:29:46.760Z,8.45
2023-03-26T06:32:20.117Z,8.05
2023-03-26T06:34:49.604Z,9.30
2023-03-26T06:37:19.704Z,12.47
2023-03-26T06:39:50.570Z,11.90
2023-03-26T06:42:18.205Z,11.25
2023-03-26T06:44:47.133Z,7.32
2023-03-26T06:47:19.155Z,7.85
2023-03-26T06:49:50.131Z,6.13
2023-03-26T06:52:24.222Z,10.13
2023-03-26T06:57:33.919Z,6.75
2023-03-26T07:00:13.646Z,7.70
2023-03-26T07:02:43.832Z,8.30
2023-03-26T07:05:15.417Z,9.05
2023-03-26T07:07:46.103Z,7.05
2023-03-26T07:10:14.231Z,9.63
2023-03-26T07:12:45.077Z,10.90
2023-03-26T07:15:15.564Z,7.17
2023-03-26T07:17:43.362Z,5.72
2023-03-26T07:20:32.826Z,6.53
2023-03-26T07:23:06.483Z,7.18
2023-03-26T07:25:34.809Z,6.65
2023-03-26T07:28:12.563Z,11.07
2023-03-26T07:30:58.006Z,10.90
2023-03-26T07:33:34.661Z,7.72
2023-03-26T07:36:19.321Z,8.82
2023-03-26T07:39:08.447Z,6.65
2023-03-26T07:41:45.080Z,5.53
2023-03-26T07:44:34.683Z,6.75
2023-03-26T07:47:12.360Z,7.70
2023-03-26T07:49:40.232Z,10.27
2023-03-26T07:52:12.674Z,7.43
2023-03-26T07:54:42.561Z,9.07
2023-03-26T07:57:33.237Z,9.15
2023-03-26T08:00:07.856Z,7.40
2023-03-26T08:02:51.148Z,7.15
2023-03-26T08:05:25.684Z,12.13
2023-03-26T08:08:04.631Z,7.07
2023-03-26T08:10:43.486Z,7.07
2023-03-26T08:13:25.469Z,10.38
2023-03-26T08:16:06.044Z,10.02
2023-03-26T08:18:49.716Z,6.43
2023-03-26T08:21:28.526Z,8.20
2023-03-26T08:24:07.908Z,9.07
2023-03-26T08:26:43.056Z,12.95
2023-03-26T08:29:20.720Z,6.50
2023-03-26T08:32:05.170Z,11.93
2023-03-26T08:34:33.772Z,10.70
2023-03-26T08:37:08.682Z,7.68
2023-03-26T08:39:38.701Z,7.05
2023-03-26T08:42:33.011Z,8.10
2023-03-26T08:48:44.205Z,10.57
2023-03-26T08:51:43.614Z,10.05
2023-03-26T08:54:47.732Z,9.93
2023-03-26T08:57:50.952Z,8.57
2023-03-26T09:00:55.774Z,10.45
2023-03-26T09:03:49.864Z,7.37
2023-03-26T09:06:51.016Z,10.95
2023-03-26T09:09:59.328Z,6.05
2023-03-26T09:13:07.041Z,5.82
2023-03-26T09:19:34.752Z,7.33
2023-03-26T09:23:06.818Z,9.13
2023-03-26T09:26:22.502Z,9.65
2023-03-26T09:29:37.091Z,9.32
2023-03-26T09:32:56.319Z,8.93
2023-03-26T09:35:50.944Z,13.20
2023-03-26T09:38:36.710Z,7.88
2023-03-26T09:41:15.104Z,8.48
2023-03-26T09:44:15.609Z,9.25
2023-03-26T09:46:52.129Z,9.65
2023-03-26T09:49:39.609Z,12.63
2023-03-26T09:52:24.149Z,11.10
2023-03-26T09:55:23.971Z,10.98
2023-03-26T09:58:10.133Z,12.15
2023-03-26T10:00:48.840Z,12.80
2023-03-26T10:03:45.303Z,10.40
2023-03-26T10:06:27.186Z,10.35
2023-03-26T10:13:04.893Z,12.88
2023-03-26T10:15:57.660Z,14.68
2023-03-26T10:18:34.413Z,13.85
2023-03-26T10:21:10.283Z,12.68
2023-03-26T10:23:59.793Z,14.55
2023-03-26T10:27:09.677Z,10.70
2023-03-26T10:30:06.650Z,9.57
2023-03-26T10:32:51.302Z,10.02
2023-03-26T10:35:40.459Z,10.82
2023-03-26T10:38:18.601Z,11.10
2023-03-26T10:40:58.507Z,15.40
2023-03-26T10:44:08.546Z,9.65
2023-03-26T10:47:16.914Z,8.10
2023-03-26T10:50:33.034Z,10.02
2023-03-26T10:53:08.108Z,10.10
2023-03-26T10:55:39.728Z,7.70
2023-03-26T10:58:18.027Z,12.65
2023-03-26T11:00:51.470Z,11.77
2023-03-26T11:03:44.545Z,10.65
2023-03-26T11:06:28.756Z,11.23
2023-03-26T11:09:19.608Z,11.52
2023-03-26T11:11:52.654Z,8.90
2023-03-26T11:14:35.282Z,8.68
2023-03-26T11:17:39.658Z,10.02
2023-03-26T11:20:31.205Z,9.25
2023-03-26T11:23:14.026Z,10.77
2023-03-26T11:25:57.933Z,8.88
2023-03-26T11:29:03.241Z,12.00
2023-03-26T11:31:48.903Z,8.73
2023-03-26T11:34:20.545Z,10.30
2023-03-26T11:37:01.326Z,6.85
2023-03-26T11:39:36.036Z,7.78
2023-03-26T11:42:18.256Z,10.07
2023-03-26T11:44:54.034Z,7.32
2023-03-26T11:47:36.697Z,8.23
2023-03-26T11:50:06.137Z,8.60
2023-03-26T11:52:37.480Z,13.65
2023-03-26T11:55:04.539Z,6.88
2023-03-26T11:57:37.067Z,9.95
2023-03-26T12:00:11.918Z,9.70
2023-03-26T12:02:46.952Z,5.97
2023-03-26T12:05:17.896Z,6.40
2023-03-26T12:07:53.673Z,9.13
2023-03-26T12:10:33.086Z,9.55
2023-03-26T12:13:15.470Z,9.88
2023-03-26T12:15:47.070Z,8.88
2023-03-26T12:18:25.955Z,5.85
2023-03-26T12:21:04.704Z,6.95
2023-03-26T12:23:42.158Z,7.90
2023-03-26T12:26:18.464Z,10.00
2023-03-26T12:28:51.033Z,6.32
2023-03-26T12:31:21.156Z,10.18
2023-03-26T12:34:07.079Z,8.75
2023-03-26T12:36:35.975Z,7.03
2023-03-26T12:40:08.705Z,8.05
2023-03-26T12:44:44.292Z,9.15
2023-03-26T12:45:20.784Z,4.68
2023-03-26T12:48:00.848Z,5.40
2023-03-26T12:50:51.350Z,3.92
2023-03-26T12:53:33.724Z,6.00
2023-03-26T12:56:09.457Z,8.40
2023-03-26T12:59:06.184Z,11.38
2023-03-26T13:01:48.899Z,9.85
2023-03-26T13:04:36.226Z,7.32
2023-03-26T13:07:15.111Z,6.10
2023-03-26T13:10:16.787Z,5.13
2023-03-26T13:12:50.943Z,7.45
2023-03-26T13:18:19.753Z,6.35
2023-03-26T13:21:01.034Z,5.93
2023-03-26T13:23:45.800Z,6.63
2023-03-26T13:26:36.079Z,6.20
2023-03-26T13:29:13.480Z,17.30
2023-03-26T13:31:53.156Z,7.93
2023-03-26T13:34:33.785Z,8.45
2023-03-26T13:37:13.667Z,7.78
2023-03-26T13:39:56.389Z,4.78
2023-03-26T13:42:46.546Z,5.70
2023-03-26T13:45:35.636Z,6.25
2023-03-26T13:48:06.275Z,4.72
2023-03-26T13:50:39.480Z,7.22
2023-03-26T13:56:07.744Z,7.68
2023-03-26T13:58:39.326Z,7.40
2023-03-26T14:01:11.262Z,7.40
2023-03-26T14:03:52.223Z,5.82
2023-03-26T14:06:34.687Z,8.60
2023-03-26T14:09:10.793Z,5.90
2023-03-26T14:11:53.122Z,4.90
2023-03-26T14:14:27.653Z,5.88
2023-03-26T14:17:08.586Z,6.13
2023-03-26T14:20:24.607Z,8.48
2023-03-26T14:23:08.544Z,4.47
2023-03-26T14:25:56.730Z,5.57
2023-03-26T14:28:48.287Z,4.25
2023-03-26T14:34:47.616Z,4.07
2023-03-26T14:38:11.305Z,9.05
2023-03-26T14:41:01.044Z,7.32
2023-03-26T14:44:06.279Z,7.53
2023-03-26T14:46:57.021Z,6.82
2023-03-26T14:49:58.145Z,7.53
2023-03-26T14:52:33.049Z,6.30
2023-03-26T14:55:06.496Z,4.75
2023-03-26T14:58:00.028Z,5.57
2023-03-26T15:01:31.975Z,5.13
2023-03-26T15:04:35.639Z,4.45
2023-03-26T15:07:45.100Z,10.25
2023-03-26T15:10:42.030Z,5.25
2023-03-26T15:13:45.499Z,10.27
2023-03-26T15:16:38.515Z,6.18
2023-03-26T15:19:44.094Z,9.05
2023-03-26T15:26:00.001Z,6.72
2023-03-26T15:29:14.199Z,3.65
2023-03-26T15:35:39.214Z,3.75
2023-03-26T15:38:36.200Z,1.60
2023-03-26T15:41:15.508Z,1.42
2023-03-26T15:44:24.402Z,2.33
2023-03-26T15:46:59.263Z,5.22
2023-03-26T15:49:43.571Z,5.40
2023-03-26T15:52:21.672Z,4.25
2023-03-26T15:54:59.577Z,7.47
2023-03-26T15:57:34.968Z,6.07
2023-03-26T16:00:22.197Z,3.08
2023-03-26T16:03:11.190Z,2.60
2023-03-26T16:05:55.446Z,4.05
2023-03-26T16:08:34.662Z,2.75
2023-03-26T16:11:04.224Z,5.28
2023-03-26T16:13:41.154Z,4.93
2023-03-26T16:16:22.485Z,4.88
2023-03-26T16:19:22.092Z,2.47
2023-03-26T16:22:04.195Z,3.80
2023-03-26T16:24:35.534Z,5.30
2023-03-26T16:27:31.117Z,8.85
2023-03-26T16:30:29.825Z,8.02
2023-03-26T16:33:12.518Z,3.70
2023-03-26T16:36:03.684Z,4.47
2023-03-26T16:38:58.544Z,3.70
2023-03-26T16:41:29.777Z,4.22
2023-03-26T16:46:59.921Z,5.25
2023-03-26T16:49:35.629Z,5.18
2023-03-26T16:52:26.996Z,5.68
2023-03-26T16:55:06.629Z,6.88
2023-03-26T16:57:43.784Z,4.18
2023-03-26T17:00:50.991Z,4.22
2023-03-26T17:03:33.179Z,5.93
2023-03-26T17:06:25.137Z,7.38
2023-03-26T17:09:11.707Z,4.22
2023-03-26T17:11:53.380Z,4.20
2023-03-26T17:14:34.412Z,4.55
2023-03-26T17:17:25.090Z,4.70
2023-03-26T17:20:03.112Z,4.72
2023-03-26T17:22:43.598Z,7.20
2023-03-26T17:25:28.150Z,5.30
2023-03-26T17:28:17.994Z,4.93
2023-03-26T17:30:59.540Z,7.50
2023-03-26T17:33:36.413Z,6.72
2023-03-26T17:36:30.099Z,6.45
2023-03-26T17:39:06.016Z,6.55
2023-03-26T17:42:10.744Z,5.80
2023-03-26T17:44:50.000Z,7.85
2023-03-26T17:47:55.363Z,6.78
2023-03-26T17:50:32.661Z,6.85
2023-03-26T17:53:01.656Z,7.10
2023-03-26T17:55:30.825Z,6.78
2023-03-26T17:58:01.284Z,7.70
2023-03-26T18:00:35.563Z,14.95
2023-03-26T18:03:08.761Z,32.78
2023-03-26T18:05:41.428Z,36.22
2023-03-26T18:08:32.549Z,23.58
2023-03-26T18:11:51.455Z,14.68
2023-03-26T18:14:46.935Z,13.40
2023-03-26T18:17:18.812Z,12.48
2023-03-26T18:20:00.139Z,12.52
2023-03-26T18:22:29.636Z,11.90
2023-03-26T18:25:06.202Z,9.75
2023-03-26T18:27:40.482Z,10.75
2023-03-26T18:30:15.878Z,11.98
2023-03-26T18:33:01.333Z,16.25
2023-03-26T18:35:42.162Z,14.07
2023-03-26T18:38:14.721Z,18.50
2023-03-26T18:40:42.986Z,16.75
2023-03-26T18:43:22.227Z,19.52
2023-03-26T18:46:07.265Z,19.33
2023-03-26T18:48:48.001Z,14.77
2023-03-26T18:51:26.463Z,12.32
2023-03-26T18:53:57.325Z,6.97
2023-03-26T18:56:31.887Z,9.60
2023-03-26T18:59:06.766Z,12.00
2023-03-26T19:01:42.112Z,9.50
2023-03-26T19:04:13.701Z,12.52
2023-03-26T19:06:51.242Z,9.55
2023-03-26T19:12:06.601Z,7.07
2023-03-26T19:14:38.949Z,5.47
2023-03-26T19:17:18.482Z,5.30
2023-03-26T19:19:51.443Z,5.80
2023-03-26T19:22:20.679Z,4.72
2023-03-26T19:25:02.171Z,3.40
2023-03-26T19:27:29.497Z,5.97
2023-03-26T19:29:57.581Z,4.50
2023-03-26T19:32:32.410Z,5.40
2023-03-26T19:35:27.442Z,9.35
2023-03-26T19:40:41.658Z,8.18
2023-03-26T19:43:12.912Z,3.10
2023-03-26T19:46:02.881Z,2.10
2023-03-26T19:48:45.867Z,4.65
2023-03-26T19:51:21.528Z,4.60
2023-03-26T19:53:54.601Z,2.80
2023-03-26T19:56:22.482Z,4.05
2023-03-26T19:59:00.432Z,3.17
2023-03-26T20:01:32.252Z,2.20
2023-03-26T20:04:06.166Z,2.78
2023-03-26T20:06:43.698Z,3.38
2023-03-26T20:09:12.620Z,2.60
2023-03-26T20:11:42.205Z,3.85
2023-03-26T20:14:15.374Z,2.08
2023-03-26T20:16:46.506Z,4.82
2023-03-26T20:19:18.855Z,6.15
2023-03-26T20:21:51.831Z,8.93
2023-03-26T20:24:22.078Z,14.82
2023-03-26T20:26:52.779Z,12.05
2023-03-26T20:29:21.533Z,13.18
2023-03-26T20:31:48.416Z,12.88
2023-03-26T20:34:18.327Z,9.23
2023-03-26T20:37:01.391Z,10.85
2023-03-26T20:39:33.695Z,17.77
2023-03-26T20:42:04.237Z,17.98
2023-03-26T20:44:33.454Z,17.77
2023-03-26T20:47:07.253Z,16.30
2023-03-26T20:49:35.116Z,20.08
2023-03-26T20:52:07.471Z,16.17
2023-03-26T20:54:34.957Z,12.02
2023-03-26T20:59:44.734Z,9.40
2023-03-26T21:02:16.461Z,8.40
2023-03-26T21:04:50.346Z,7.20
2023-03-26T21:07:47.940Z,5.28
2023-03-26T21:10:39.613Z,5.40
2023-03-26T21:13:12.330Z,6.82
2023-03-26T21:15:44.096Z,9.00
2023-03-26T21:18:18.843Z,7.93
2023-03-26T21:21:07.672Z,9.02
2023-03-26T21:23:52.239Z,8.85
2023-03-26T21:26:32.166Z,8.05
2023-03-26T21:31:55.419Z,8.07
2023-03-26T21:34:23.878Z,6.38
2023-03-26T21:36:51.930Z,7.35
2023-03-26T21:39:51.005Z,4.90
2023-03-26T21:42:18.808Z,4.78
2023-03-26T21:44:49.366Z,4.45
2023-03-26T21:47:21.316Z,5.20
2023-03-26T21:49:50.462Z,3.15
2023-03-26T21:55:03.398Z,3.97
2023-03-26T21:57:41.166Z,3.45
2023-03-26T22:00:14.269Z,3.22
2023-03-26T22:02:52.732Z,4.32
2023-03-26T22:05:26.181Z,5.38
2023-03-26T22:07:58.682Z,4.35
2023-03-26T22:10:45.483Z,3.92
2023-03-26T22:13:12.803Z,4.47
2023-03-26T22:15:41.421Z,2.95
2023-03-26T22:18:30.596Z,3.95
2023-03-26T22:21:02.668Z,3.70
2023-03-26T22:23:31.853Z,2.75
2023-03-26T22:26:01.875Z,4.72
2023-03-26T22:28:29.684Z,6.05
2023-03-26T22:31:06.040Z,4.15
2023-03-26T22:33:33.701Z,4.13
2023-03-26T22:36:22.547Z,3.75
2023-03-26T22:38:53.334Z,5.57
2023-03-26T22:41:23.627Z,3.13
2023-03-26T22:43:51.795Z,5.15
2023-03-26T22:46:21.612Z,4.05
2023-03-26T22:48:49.489Z,3.35
2023-03-26T22:51:17.066Z,4.05
2023-03-26T22:53:44.934Z,4.40
2023-03-26T22:56:13.689Z,5.07
2023-03-26T22:58:52.261Z,5.88
2023-03-26T23:01:23.144Z,4.72
2023-03-26T23:03:54.461Z,4.97
2023-03-26T23:06:22.001Z,5.05
2023-03-26T23:08:51.008Z,4.78
2023-03-26T23:11:21.106Z,4.82
2023-03-26T23:13:50.537Z,3.78
2023-03-26T23:16:30.331Z,6.05
2023-03-26T23:18:59.066Z,4.63
2023-03-26T23:21:37.021Z,4.82
2023-03-26T23:24:06.516Z,6.47
2023-03-26T23:29:28.938Z,4.50
2023-03-26T23:32:00.180Z,4.18
2023-03-26T23:34:30.659Z,4.00
2023-03-26T23:36:58.958Z,3.33
2023-03-26T23:39:29.754Z,2.75
2023-03-26T23:41:59.512Z,2.22
2023-03-26T23:44:37.568Z,1.90
2023-03-26T23:47:10.346Z,2.90
2023-03-26T23:49:43.291Z,1.90
2023-03-26T23:52:14.175Z,1.52
2023-03-26T23:54:46.711Z,2.65
2023-03-26T23:57:16.378Z,1.65
2023-03-26T23:59:52.848Z,2.42
